sensor_id;sensor_type;location;lat;lon;timestamp;temperature;humidity
33739;DHT22;20063;51.730;11.110;2022-12-31T00:00:35;10.30;99.90
33739;DHT22;20063;51.730;11.110;2022-12-31T00:03:04;10.40;99.90
33739;DHT22;20063;51.730;11.110;2022-12-31T00:05:33;10.40;99.90
33739;DHT22;20063;51.730;11.110;2022-12-31T00:07:59;10.50;99.90
33739;DHT22;20063;51.730;11.110;2022-12-31T00:10:26;10.50;99.90
33739;DHT22;20063;51.730;11.110;2022-12-31T00:12:52;10.50;99.90
33739;DHT22;20063;51.730;11.110;2022-12-31T00:15:17;10.60;99.90
33739;DHT22;20063;51.730;11.110;2022-12-31T00:17:43;10.60;99.90
33739;DHT22;20063;51.730;11.110;2022-12-31T00:20:08;10.60;99.90
33739;DHT22;20063;51.730;11.110;2022-12-31T00:22:34;10.70;99.90
33739;DHT22;20063;51.730;11.110;2022-12-31T00:25:00;10.80;99.90
33739;DHT22;20063;51.730;11.110;2022-12-31T00:27:25;10.80;99.90
33739;DHT22;20063;51.730;11.110;2022-12-31T00:29:54;10.80;99.90
33739;DHT22;20063;51.730;11.110;2022-12-31T00:32:19;10.80;99.90
33739;DHT22;20063;51.730;11.110;2022-12-31T00:34:45;10.90;99.90
33739;DHT22;20063;51.730;11.110;2022-12-31T00:37:10;11.00;99.90
33739;DHT22;20063;51.730;11.110;2022-12-31T00:39:37;11.00;99.90
33739;DHT22;20063;51.730;11.110;2022-12-31T00:42:02;11.00;99.90
33739;DHT22;20063;51.730;11.110;2022-12-31T00:44:30;11.00;99.90
33739;DHT22;20063;51.730;11.110;2022-12-31T00:46:55;11.00;99.90
33739;DHT22;20063;51.730;11.110;2022-12-31T00:49:21;11.10;99.90
33739;DHT22;20063;51.730;11.110;2022-12-31T00:51:46;11.10;99.90
33739;DHT22;20063;51.730;11.110;2022-12-31T00:54:13;11.10;99.90
33739;DHT22;20063;51.730;11.110;2022-12-31T00:56:38;11.20;99.90
33739;DHT22;20063;51.730;11.110;2022-12-31T00:59:04;11.20;99.90
33739;DHT22;20063;51.730;11.110;2022-12-31T01:01:35;11.20;99.90
33739;DHT22;20063;51.730;11.110;2022-12-31T01:04:04;11.20;99.90
33739;DHT22;20063;51.730;11.110;2022-12-31T01:06:30;11.20;99.90
33739;DHT22;20063;51.730;11.110;2022-12-31T01:08:56;11.30;99.90
33739;DHT22;20063;51.730;11.110;2022-12-31T01:11:22;11.30;99.90
33739;DHT22;20063;51.730;11.110;2022-12-31T01:13:56;11.30;99.90
33739;DHT22;20063;51.730;11.110;2022-12-31T01:16:30;11.30;99.90
33739;DHT22;20063;51.730;11.110;2022-12-31T01:18:58;11.30;99.90
33739;DHT22;20063;51.730;11.110;2022-12-31T01:21:24;11.30;99.90
33739;DHT22;20063;51.730;11.110;2022-12-31T01:23:49;11.30;99.90
33739;DHT22;20063;51.730;11.110;2022-12-31T01:26:16;11.30;99.90
33739;DHT22;20063;51.730;11.110;2022-12-31T01:28:42;11.30;99.90
33739;DHT22;20063;51.730;11.110;2022-12-31T01:31:10;11.20;99.90
33739;DHT22;20063;51.730;11.110;2022-12-31T01:33:37;11.30;99.90
33739;DHT22;20063;51.730;11.110;2022-12-31T01:36:08;11.30;99.90
33739;DHT22;20063;51.730;11.110;2022-12-31T01:38:35;11.30;99.90
33739;DHT22;20063;51.730;11.110;2022-12-31T01:41:01;11.30;99.90
33739;DHT22;20063;51.730;11.110;2022-12-31T01:43:50;11.30;99.90
33739;DHT22;20063;51.730;11.110;2022-12-31T01:46:32;11.20;99.90
33739;DHT22;20063;51.730;11.110;2022-12-31T01:49:02;11.30;99.90
33739;DHT22;20063;51.730;11.110;2022-12-31T01:51:31;11.30;99.90
33739;DHT22;20063;51.730;11.110;2022-12-31T01:53:58;11.20;99.90
33739;DHT22;20063;51.730;11.110;2022-12-31T01:56:24;11.30;99.90
33739;DHT22;20063;51.730;11.110;2022-12-31T01:58:53;11.30;99.90
33739;DHT22;20063;51.730;11.110;2022-12-31T02:01:25;11.40;99.90
33739;DHT22;20063;51.730;11.110;2022-12-31T02:03:52;11.50;99.90
33739;DHT22;20063;51.730;11.110;2022-12-31T02:06:31;11.50;99.90
33739;DHT22;20063;51.730;11.110;2022-12-31T02:08:59;11.60;99.90
33739;DHT22;20063;51.730;11.110;2022-12-31T02:11:29;11.60;99.90
33739;DHT22;20063;51.730;11.110;2022-12-31T02:13:57;11.70;99.90
33739;DHT22;20063;51.730;11.110;2022-12-31T02:19:41;11.80;99.90
33739;DHT22;20063;51.730;11.110;2022-12-31T02:22:35;11.80;99.90
33739;DHT22;20063;51.730;11.110;2022-12-31T02:30:36;11.80;99.90
33739;DHT22;20063;51.730;11.110;2022-12-31T02:33:27;11.80;99.90
33739;DHT22;20063;51.730;11.110;2022-12-31T02:36:02;11.80;99.90
33739;DHT22;20063;51.730;11.110;2022-12-31T02:38:38;11.80;99.90
33739;DHT22;20063;51.730;11.110;2022-12-31T02:41:13;11.90;99.90
33739;DHT22;20063;51.730;11.110;2022-12-31T02:43:57;11.80;99.90
33739;DHT22;20063;51.730;11.110;2022-12-31T02:46:39;11.90;99.90
33739;DHT22;20063;51.730;11.110;2022-12-31T02:55:51;12.00;99.90
33739;DHT22;20063;51.730;11.110;2022-12-31T02:58:41;12.00;99.90
33739;DHT22;20063;51.730;11.110;2022-12-31T03:01:34;12.00;99.90
33739;DHT22;20063;51.730;11.110;2022-12-31T03:04:20;12.00;99.90
33739;DHT22;20063;51.730;11.110;2022-12-31T03:07:12;12.00;99.90
33739;DHT22;20063;51.730;11.110;2022-12-31T03:09:38;12.00;99.90
33739;DHT22;20063;51.730;11.110;2022-12-31T03:12:11;11.90;99.90
33739;DHT22;20063;51.730;11.110;2022-12-31T03:14:56;11.90;99.90
33739;DHT22;20063;51.730;11.110;2022-12-31T03:17:22;11.90;99.90
33739;DHT22;20063;51.730;11.110;2022-12-31T03:19:48;11.90;99.90
33739;DHT22;20063;51.730;11.110;2022-12-31T03:22:34;11.90;99.90
33739;DHT22;20063;51.730;11.110;2022-12-31T03:25:09;12.00;99.90
33739;DHT22;20063;51.730;11.110;2022-12-31T03:27:53;12.00;99.90
33739;DHT22;20063;51.730;11.110;2022-12-31T03:30:20;12.10;99.90
33739;DHT22;20063;51.730;11.110;2022-12-31T03:32:47;12.20;99.90
33739;DHT22;20063;51.730;11.110;2022-12-31T03:35:14;12.10;99.90
33739;DHT22;20063;51.730;11.110;2022-12-31T03:37:43;12.10;99.90
33739;DHT22;20063;51.730;11.110;2022-12-31T03:40:10;12.20;99.90
33739;DHT22;20063;51.730;11.110;2022-12-31T03:42:36;12.20;99.90
33739;DHT22;20063;51.730;11.110;2022-12-31T03:45:03;12.20;99.90
33739;DHT22;20063;51.730;11.110;2022-12-31T03:47:29;12.20;99.90
33739;DHT22;20063;51.730;11.110;2022-12-31T03:49:54;12.30;99.90
33739;DHT22;20063;51.730;11.110;2022-12-31T03:52:20;12.30;99.90
33739;DHT22;20063;51.730;11.110;2022-12-31T03:54:46;12.30;99.90
33739;DHT22;20063;51.730;11.110;2022-12-31T03:57:11;12.30;99.90
33739;DHT22;20063;51.730;11.110;2022-12-31T03:59:37;12.30;99.90
33739;DHT22;20063;51.730;11.110;2022-12-31T04:02:06;12.30;99.90
33739;DHT22;20063;51.730;11.110;2022-12-31T04:04:32;12.30;99.90
33739;DHT22;20063;51.730;11.110;2022-12-31T04:06:57;12.30;99.90
33739;DHT22;20063;51.730;11.110;2022-12-31T04:09:26;12.40;99.90
33739;DHT22;20063;51.730;11.110;2022-12-31T04:11:54;12.40;99.90
33739;DHT22;20063;51.730;11.110;2022-12-31T04:14:20;12.50;99.90
33739;DHT22;20063;51.730;11.110;2022-12-31T04:16:45;12.50;99.90
33739;DHT22;20063;51.730;11.110;2022-12-31T04:19:11;12.50;99.90
33739;DHT22;20063;51.730;11.110;2022-12-31T04:21:37;12.50;99.90
33739;DHT22;20063;51.730;11.110;2022-12-31T04:24:03;12.60;99.90
33739;DHT22;20063;51.730;11.110;2022-12-31T04:26:32;12.70;99.90
33739;DHT22;20063;51.730;11.110;2022-12-31T04:28:58;12.80;99.90
33739;DHT22;20063;51.730;11.110;2022-12-31T04:31:23;12.80;99.90
33739;DHT22;20063;51.730;11.110;2022-12-31T04:33:49;12.90;99.90
33739;DHT22;20063;51.730;11.110;2022-12-31T04:36:14;12.90;99.90
33739;DHT22;20063;51.730;11.110;2022-12-31T04:38:40;13.00;99.90
33739;DHT22;20063;51.730;11.110;2022-12-31T04:41:05;12.90;99.90
33739;DHT22;20063;51.730;11.110;2022-12-31T04:43:49;13.10;99.90
33739;DHT22;20063;51.730;11.110;2022-12-31T04:46:20;13.00;99.90
33739;DHT22;20063;51.730;11.110;2022-12-31T04:48:49;13.00;99.90
33739;DHT22;20063;51.730;11.110;2022-12-31T04:51:15;13.10;99.90
33739;DHT22;20063;51.730;11.110;2022-12-31T04:53:41;13.20;99.90
33739;DHT22;20063;51.730;11.110;2022-12-31T04:56:07;13.20;99.90
33739;DHT22;20063;51.730;11.110;2022-12-31T04:58:33;13.20;99.90
33739;DHT22;20063;51.730;11.110;2022-12-31T05:01:02;13.20;99.90
33739;DHT22;20063;51.730;11.110;2022-12-31T05:03:36;13.20;99.90
33739;DHT22;20063;51.730;11.110;2022-12-31T05:06:06;13.30;99.90
33739;DHT22;20063;51.730;11.110;2022-12-31T05:08:33;13.30;99.90
33739;DHT22;20063;51.730;11.110;2022-12-31T05:10:58;13.30;99.90
33739;DHT22;20063;51.730;11.110;2022-12-31T05:13:24;13.30;99.90
33739;DHT22;20063;51.730;11.110;2022-12-31T05:15:50;13.40;99.90
33739;DHT22;20063;51.730;11.110;2022-12-31T05:18:16;13.40;99.90
33739;DHT22;20063;51.730;11.110;2022-12-31T05:20:42;13.40;99.90
33739;DHT22;20063;51.730;11.110;2022-12-31T05:23:12;13.50;99.90
33739;DHT22;20063;51.730;11.110;2022-12-31T05:25:42;13.50;99.90
33739;DHT22;20063;51.730;11.110;2022-12-31T05:28:08;13.50;99.90
33739;DHT22;20063;51.730;11.110;2022-12-31T05:30:34;13.50;99.90
33739;DHT22;20063;51.730;11.110;2022-12-31T05:32:59;13.50;99.90
33739;DHT22;20063;51.730;11.110;2022-12-31T05:35:31;13.50;99.90
33739;DHT22;20063;51.730;11.110;2022-12-31T05:37:58;13.50;99.90
33739;DHT22;20063;51.730;11.110;2022-12-31T05:40:24;13.50;99.90
33739;DHT22;20063;51.730;11.110;2022-12-31T05:42:49;13.50;99.90
33739;DHT22;20063;51.730;11.110;2022-12-31T05:45:18;13.50;99.90
33739;DHT22;20063;51.730;11.110;2022-12-31T05:47:43;13.60;99.90
33739;DHT22;20063;51.730;11.110;2022-12-31T05:50:11;13.70;99.90
33739;DHT22;20063;51.730;11.110;2022-12-31T05:52:42;13.80;99.90
33739;DHT22;20063;51.730;11.110;2022-12-31T05:55:08;13.90;99.90
33739;DHT22;20063;51.730;11.110;2022-12-31T05:57:34;13.90;99.90
33739;DHT22;20063;51.730;11.110;2022-12-31T06:00:00;13.90;99.90
33739;DHT22;20063;51.730;11.110;2022-12-31T06:02:25;13.90;99.90
33739;DHT22;20063;51.730;11.110;2022-12-31T06:04:51;13.90;99.90
33739;DHT22;20063;51.730;11.110;2022-12-31T06:07:20;13.90;99.90
33739;DHT22;20063;51.730;11.110;2022-12-31T06:09:47;14.00;99.90
33739;DHT22;20063;51.730;11.110;2022-12-31T06:12:13;14.00;99.90
33739;DHT22;20063;51.730;11.110;2022-12-31T06:14:42;14.00;99.90
33739;DHT22;20063;51.730;11.110;2022-12-31T06:17:12;14.00;99.90
33739;DHT22;20063;51.730;11.110;2022-12-31T06:19:37;13.90;99.90
33739;DHT22;20063;51.730;11.110;2022-12-31T06:22:03;14.10;99.90
33739;DHT22;20063;51.730;11.110;2022-12-31T06:24:28;14.10;99.90
33739;DHT22;20063;51.730;11.110;2022-12-31T06:26:54;14.20;99.90
33739;DHT22;20063;51.730;11.110;2022-12-31T06:29:19;14.30;99.90
33739;DHT22;20063;51.730;11.110;2022-12-31T06:31:48;14.30;99.90
33739;DHT22;20063;51.730;11.110;2022-12-31T06:34:13;14.40;99.90
33739;DHT22;20063;51.730;11.110;2022-12-31T06:36:42;14.30;99.90
33739;DHT22;20063;51.730;11.110;2022-12-31T06:39:07;14.40;99.90
33739;DHT22;20063;51.730;11.110;2022-12-31T06:41:39;14.40;99.90
33739;DHT22;20063;51.730;11.110;2022-12-31T06:44:04;14.40;99.90
33739;DHT22;20063;51.730;11.110;2022-12-31T06:46:30;14.40;99.90
33739;DHT22;20063;51.730;11.110;2022-12-31T06:48:56;14.50;99.90
33739;DHT22;20063;51.730;11.110;2022-12-31T06:51:21;14.40;99.90
33739;DHT22;20063;51.730;11.110;2022-12-31T06:53:48;14.40;99.90
33739;DHT22;20063;51.730;11.110;2022-12-31T06:56:17;14.40;99.90
33739;DHT22;20063;51.730;11.110;2022-12-31T06:58:43;14.40;99.90
33739;DHT22;20063;51.730;11.110;2022-12-31T07:01:56;14.40;99.90
33739;DHT22;20063;51.730;11.110;2022-12-31T07:04:43;14.40;99.90
33739;DHT22;20063;51.730;11.110;2022-12-31T07:07:25;14.50;99.90
33739;DHT22;20063;51.730;11.110;2022-12-31T07:10:32;14.50;99.90
33739;DHT22;20063;51.730;11.110;2022-12-31T07:13:18;14.50;99.90
33739;DHT22;20063;51.730;11.110;2022-12-31T07:16:05;14.50;99.90
33739;DHT22;20063;51.730;11.110;2022-12-31T07:18:44;14.50;99.90
33739;DHT22;20063;51.730;11.110;2022-12-31T07:21:14;14.50;99.90
33739;DHT22;20063;51.730;11.110;2022-12-31T07:23:41;14.50;99.90
33739;DHT22;20063;51.730;11.110;2022-12-31T07:29:07;14.50;99.90
33739;DHT22;20063;51.730;11.110;2022-12-31T07:37:48;14.70;99.90
33739;DHT22;20063;51.730;11.110;2022-12-31T07:40:23;14.80;99.90
33739;DHT22;20063;51.730;11.110;2022-12-31T07:45:53;14.90;99.90
33739;DHT22;20063;51.730;11.110;2022-12-31T07:48:25;14.80;99.90
33739;DHT22;20063;51.730;11.110;2022-12-31T07:50:53;14.80;99.90
33739;DHT22;20063;51.730;11.110;2022-12-31T07:53:20;14.80;99.90
33739;DHT22;20063;51.730;11.110;2022-12-31T07:55:57;14.80;99.90
33739;DHT22;20063;51.730;11.110;2022-12-31T08:01:14;15.00;99.90
33739;DHT22;20063;51.730;11.110;2022-12-31T08:04:04;14.90;99.90
33739;DHT22;20063;51.730;11.110;2022-12-31T08:07:00;14.90;99.90
33739;DHT22;20063;51.730;11.110;2022-12-31T08:12:02;14.90;99.90
33739;DHT22;20063;51.730;11.110;2022-12-31T08:14:28;15.00;99.90
33739;DHT22;20063;51.730;11.110;2022-12-31T08:16:55;14.90;99.90
33739;DHT22;20063;51.730;11.110;2022-12-31T08:19:23;14.90;99.90
33739;DHT22;20063;51.730;11.110;2022-12-31T08:30:15;14.90;99.90
33739;DHT22;20063;51.730;11.110;2022-12-31T08:32:57;14.90;99.90
33739;DHT22;20063;51.730;11.110;2022-12-31T08:35:51;14.80;99.90
33739;DHT22;20063;51.730;11.110;2022-12-31T08:38:38;14.70;99.90
33739;DHT22;20063;51.730;11.110;2022-12-31T08:41:24;14.70;99.90
33739;DHT22;20063;51.730;11.110;2022-12-31T08:44:10;14.60;99.90
33739;DHT22;20063;51.730;11.110;2022-12-31T08:49:31;14.60;99.90
33739;DHT22;20063;51.730;11.110;2022-12-31T08:51:58;14.50;99.90
33739;DHT22;20063;51.730;11.110;2022-12-31T08:54:24;14.50;99.90
33739;DHT22;20063;51.730;11.110;2022-12-31T08:57:03;14.50;99.90
33739;DHT22;20063;51.730;11.110;2022-12-31T09:05:54;14.70;99.90
33739;DHT22;20063;51.730;11.110;2022-12-31T09:10:58;14.80;99.90
33739;DHT22;20063;51.730;11.110;2022-12-31T09:13:37;14.90;99.90
33739;DHT22;20063;51.730;11.110;2022-12-31T09:19:28;15.00;99.90
33739;DHT22;20063;51.730;11.110;2022-12-31T09:21:54;15.20;99.90
33739;DHT22;20063;51.730;11.110;2022-12-31T09:24:20;15.20;99.90
33739;DHT22;20063;51.730;11.110;2022-12-31T09:27:17;15.20;99.90
33739;DHT22;20063;51.730;11.110;2022-12-31T09:29:50;15.30;99.90
33739;DHT22;20063;51.730;11.110;2022-12-31T09:35:03;15.50;99.90
33739;DHT22;20063;51.730;11.110;2022-12-31T09:38:01;15.50;99.90
33739;DHT22;20063;51.730;11.110;2022-12-31T09:43:33;15.60;99.90
33739;DHT22;20063;51.730;11.110;2022-12-31T09:54:33;15.60;99.90
33739;DHT22;20063;51.730;11.110;2022-12-31T09:57:15;15.60;99.90
33739;DHT22;20063;51.730;11.110;2022-12-31T10:08:08;15.70;99.90
33739;DHT22;20063;51.730;11.110;2022-12-31T10:10:47;15.80;99.90
33739;DHT22;20063;51.730;11.110;2022-12-31T10:16:43;15.90;99.90
33739;DHT22;20063;51.730;11.110;2022-12-31T10:19:27;15.90;99.90
33739;DHT22;20063;51.730;11.110;2022-12-31T10:30:20;15.80;99.90
33739;DHT22;20063;51.730;11.110;2022-12-31T10:36:29;15.80;99.90
33739;DHT22;20063;51.730;11.110;2022-12-31T10:39:22;15.90;99.90
33739;DHT22;20063;51.730;11.110;2022-12-31T10:48:28;16.10;99.90
33739;DHT22;20063;51.730;11.110;2022-12-31T10:59:52;16.10;99.90
33739;DHT22;20063;51.730;11.110;2022-12-31T11:08:27;16.20;99.90
33739;DHT22;20063;51.730;11.110;2022-12-31T11:17:13;16.30;99.90
33739;DHT22;20063;51.730;11.110;2022-12-31T11:20:14;16.30;99.90
33739;DHT22;20063;51.730;11.110;2022-12-31T11:31:30;16.30;99.90
33739;DHT22;20063;51.730;11.110;2022-12-31T11:34:20;16.40;99.90
33739;DHT22;20063;51.730;11.110;2022-12-31T11:37:09;16.40;99.90
33739;DHT22;20063;51.730;11.110;2022-12-31T11:42:45;16.50;99.90
33739;DHT22;20063;51.730;11.110;2022-12-31T11:48:31;16.50;99.90
33739;DHT22;20063;51.730;11.110;2022-12-31T11:51:45;16.40;99.90
33739;DHT22;20063;51.730;11.110;2022-12-31T11:54:31;16.40;99.90
33739;DHT22;20063;51.730;11.110;2022-12-31T11:57:15;16.40;99.90
33739;DHT22;20063;51.730;11.110;2022-12-31T11:59:41;16.40;99.90
33739;DHT22;20063;51.730;11.110;2022-12-31T12:02:36;16.40;99.90
33739;DHT22;20063;51.730;11.110;2022-12-31T12:05:07;16.30;99.90
33739;DHT22;20063;51.730;11.110;2022-12-31T12:07:34;16.20;99.90
33739;DHT22;20063;51.730;11.110;2022-12-31T12:10:03;16.10;99.90
33739;DHT22;20063;51.730;11.110;2022-12-31T12:12:42;16.20;99.90
33739;DHT22;20063;51.730;11.110;2022-12-31T12:15:09;16.30;99.90
33739;DHT22;20063;51.730;11.110;2022-12-31T12:17:35;16.30;99.90
33739;DHT22;20063;51.730;11.110;2022-12-31T12:20:15;16.30;99.90
33739;DHT22;20063;51.730;11.110;2022-12-31T12:22:54;16.40;99.90
33739;DHT22;20063;51.730;11.110;2022-12-31T12:25:24;16.40;99.90
33739;DHT22;20063;51.730;11.110;2022-12-31T12:27:50;16.40;99.90
33739;DHT22;20063;51.730;11.110;2022-12-31T12:30:27;16.40;99.90
33739;DHT22;20063;51.730;11.110;2022-12-31T12:32:58;16.40;99.90
33739;DHT22;20063;51.730;11.110;2022-12-31T12:35:28;16.40;99.90
33739;DHT22;20063;51.730;11.110;2022-12-31T12:38:02;16.50;99.90
33739;DHT22;20063;51.730;11.110;2022-12-31T12:40:29;16.50;99.90
33739;DHT22;20063;51.730;11.110;2022-12-31T12:42:55;16.50;99.90
33739;DHT22;20063;51.730;11.110;2022-12-31T12:45:23;16.60;99.90
33739;DHT22;20063;51.730;11.110;2022-12-31T12:47:56;16.70;99.90
33739;DHT22;20063;51.730;11.110;2022-12-31T12:50:31;16.60;99.90
33739;DHT22;20063;51.730;11.110;2022-12-31T12:53:30;16.60;99.90
33739;DHT22;20063;51.730;11.110;2022-12-31T12:56:26;16.70;99.90
33739;DHT22;20063;51.730;11.110;2022-12-31T12:59:22;16.70;99.90
33739;DHT22;20063;51.730;11.110;2022-12-31T13:02:25;16.70;99.90
33739;DHT22;20063;51.730;11.110;2022-12-31T13:07:49;16.70;99.90
33739;DHT22;20063;51.730;11.110;2022-12-31T13:13:17;16.80;99.90
33739;DHT22;20063;51.730;11.110;2022-12-31T13:16:03;16.80;99.90
33739;DHT22;20063;51.730;11.110;2022-12-31T13:18:53;16.80;99.90
33739;DHT22;20063;51.730;11.110;2022-12-31T13:21:49;16.80;99.90
33739;DHT22;20063;51.730;11.110;2022-12-31T13:24:41;16.90;99.90
33739;DHT22;20063;51.730;11.110;2022-12-31T13:27:22;16.90;99.90
33739;DHT22;20063;51.730;11.110;2022-12-31T13:29:48;16.90;99.90
33739;DHT22;20063;51.730;11.110;2022-12-31T13:32:21;16.90;99.90
33739;DHT22;20063;51.730;11.110;2022-12-31T13:34:51;16.90;99.90
33739;DHT22;20063;51.730;11.110;2022-12-31T13:37:27;16.90;99.90
33739;DHT22;20063;51.730;11.110;2022-12-31T13:40:00;16.90;99.90
33739;DHT22;20063;51.730;11.110;2022-12-31T13:42:44;17.00;99.90
33739;DHT22;20063;51.730;11.110;2022-12-31T13:45:24;17.00;99.90
33739;DHT22;20063;51.730;11.110;2022-12-31T13:48:02;17.00;99.90
33739;DHT22;20063;51.730;11.110;2022-12-31T13:50:52;17.00;99.90
33739;DHT22;20063;51.730;11.110;2022-12-31T13:53:25;17.00;99.90
33739;DHT22;20063;51.730;11.110;2022-12-31T13:56:01;16.90;99.90
33739;DHT22;20063;51.730;11.110;2022-12-31T13:58:52;17.00;99.90
33739;DHT22;20063;51.730;11.110;2022-12-31T14:04:32;17.00;99.90
33739;DHT22;20063;51.730;11.110;2022-12-31T14:07:08;17.00;99.90
33739;DHT22;20063;51.730;11.110;2022-12-31T14:09:35;17.00;99.90
33739;DHT22;20063;51.730;11.110;2022-12-31T14:12:23;17.00;99.90
33739;DHT22;20063;51.730;11.110;2022-12-31T14:15:25;17.00;99.90
33739;DHT22;20063;51.730;11.110;2022-12-31T14:20:47;17.00;99.90
33739;DHT22;20063;51.730;11.110;2022-12-31T14:23:43;17.00;99.90
33739;DHT22;20063;51.730;11.110;2022-12-31T14:26:44;17.00;99.90
33739;DHT22;20063;51.730;11.110;2022-12-31T14:37:00;17.10;99.90
33739;DHT22;20063;51.730;11.110;2022-12-31T14:39:34;17.10;99.90
33739;DHT22;20063;51.730;11.110;2022-12-31T14:45:16;16.90;99.90
33739;DHT22;20063;51.730;11.110;2022-12-31T14:48:09;16.90;99.90
33739;DHT22;20063;51.730;11.110;2022-12-31T14:50:35;16.80;99.90
33739;DHT22;20063;51.730;11.110;2022-12-31T14:55:32;16.70;99.90
33739;DHT22;20063;51.730;11.110;2022-12-31T14:58:01;16.70;99.90
33739;DHT22;20063;51.730;11.110;2022-12-31T15:00:37;16.60;99.90
33739;DHT22;20063;51.730;11.110;2022-12-31T15:05:51;16.60;99.90
33739;DHT22;20063;51.730;11.110;2022-12-31T15:11:39;16.50;99.90
33739;DHT22;20063;51.730;11.110;2022-12-31T15:20:00;16.40;99.90
33739;DHT22;20063;51.730;11.110;2022-12-31T15:22:42;16.40;99.90
33739;DHT22;20063;51.730;11.110;2022-12-31T15:25:31;16.40;99.90
33739;DHT22;20063;51.730;11.110;2022-12-31T15:28:00;16.30;99.90
33739;DHT22;20063;51.730;11.110;2022-12-31T15:30:46;16.30;99.90
33739;DHT22;20063;51.730;11.110;2022-12-31T15:33:39;16.20;99.90
33739;DHT22;20063;51.730;11.110;2022-12-31T15:36:23;16.20;99.90
33739;DHT22;20063;51.730;11.110;2022-12-31T15:39:02;16.10;99.90
33739;DHT22;20063;51.730;11.110;2022-12-31T15:46:37;16.10;99.90
33739;DHT22;20063;51.730;11.110;2022-12-31T15:49:16;16.00;99.90
33739;DHT22;20063;51.730;11.110;2022-12-31T15:51:55;16.00;99.90
33739;DHT22;20063;51.730;11.110;2022-12-31T15:54:35;15.90;99.90
33739;DHT22;20063;51.730;11.110;2022-12-31T15:57:03;15.90;99.90
33739;DHT22;20063;51.730;11.110;2022-12-31T15:59:29;15.90;99.90
33739;DHT22;20063;51.730;11.110;2022-12-31T16:01:55;15.90;99.90
33739;DHT22;20063;51.730;11.110;2022-12-31T16:04:27;15.90;99.90
33739;DHT22;20063;51.730;11.110;2022-12-31T16:06:53;15.80;99.90
33739;DHT22;20063;51.730;11.110;2022-12-31T16:09:28;15.90;99.90
33739;DHT22;20063;51.730;11.110;2022-12-31T16:11:55;15.90;99.90
33739;DHT22;20063;51.730;11.110;2022-12-31T16:14:31;15.90;99.90
33739;DHT22;20063;51.730;11.110;2022-12-31T16:17:00;15.80;99.90
33739;DHT22;20063;51.730;11.110;2022-12-31T16:19:34;15.80;99.90
33739;DHT22;20063;51.730;11.110;2022-12-31T16:22:12;15.80;99.90
33739;DHT22;20063;51.730;11.110;2022-12-31T16:24:38;15.80;99.90
33739;DHT22;20063;51.730;11.110;2022-12-31T16:27:07;15.80;99.90
33739;DHT22;20063;51.730;11.110;2022-12-31T16:29:35;15.80;99.90
33739;DHT22;20063;51.730;11.110;2022-12-31T16:32:02;15.70;99.90
33739;DHT22;20063;51.730;11.110;2022-12-31T16:34:28;15.70;99.90
33739;DHT22;20063;51.730;11.110;2022-12-31T16:37:17;15.80;99.90
33739;DHT22;20063;51.730;11.110;2022-12-31T16:42:25;15.70;99.90
33739;DHT22;20063;51.730;11.110;2022-12-31T16:44:54;15.80;99.90
33739;DHT22;20063;51.730;11.110;2022-12-31T16:47:29;15.70;99.90
33739;DHT22;20063;51.730;11.110;2022-12-31T16:50:13;15.70;99.90
33739;DHT22;20063;51.730;11.110;2022-12-31T16:52:44;15.70;99.90
33739;DHT22;20063;51.730;11.110;2022-12-31T16:55:24;15.60;99.90
33739;DHT22;20063;51.730;11.110;2022-12-31T16:57:52;15.70;99.90
33739;DHT22;20063;51.730;11.110;2022-12-31T17:00:21;15.60;99.90
33739;DHT22;20063;51.730;11.110;2022-12-31T17:03:16;15.60;99.90
33739;DHT22;20063;51.730;11.110;2022-12-31T17:11:23;15.60;99.90
33739;DHT22;20063;51.730;11.110;2022-12-31T17:13:56;15.50;99.90
33739;DHT22;20063;51.730;11.110;2022-12-31T17:16:22;15.50;99.90
33739;DHT22;20063;51.730;11.110;2022-12-31T17:18:47;15.50;99.90
33739;DHT22;20063;51.730;11.110;2022-12-31T17:21:13;15.50;99.90
33739;DHT22;20063;51.730;11.110;2022-12-31T17:23:40;15.50;99.90
33739;DHT22;20063;51.730;11.110;2022-12-31T17:26:13;15.40;99.90
33739;DHT22;20063;51.730;11.110;2022-12-31T17:28:47;15.40;99.90
33739;DHT22;20063;51.730;11.110;2022-12-31T17:31:36;15.30;99.90
33739;DHT22;20063;51.730;11.110;2022-12-31T17:34:19;15.30;99.90
33739;DHT22;20063;51.730;11.110;2022-12-31T17:39:25;15.30;99.90
33739;DHT22;20063;51.730;11.110;2022-12-31T17:41:54;15.30;99.90
33739;DHT22;20063;51.730;11.110;2022-12-31T17:44:22;15.20;99.90
33739;DHT22;20063;51.730;11.110;2022-12-31T17:46:50;15.20;99.90
33739;DHT22;20063;51.730;11.110;2022-12-31T17:49:16;15.20;99.90
33739;DHT22;20063;51.730;11.110;2022-12-31T17:51:47;15.10;99.90
33739;DHT22;20063;51.730;11.110;2022-12-31T17:54:16;15.20;99.90
33739;DHT22;20063;51.730;11.110;2022-12-31T17:56:43;15.20;99.90
33739;DHT22;20063;51.730;11.110;2022-12-31T17:59:30;15.20;99.90
33739;DHT22;20063;51.730;11.110;2022-12-31T18:01:59;15.20;99.90
33739;DHT22;20063;51.730;11.110;2022-12-31T18:04:25;15.20;99.90
33739;DHT22;20063;51.730;11.110;2022-12-31T18:06:51;15.20;99.90
33739;DHT22;20063;51.730;11.110;2022-12-31T18:09:17;15.10;99.90
33739;DHT22;20063;51.730;11.110;2022-12-31T18:11:44;15.20;99.90
33739;DHT22;20063;51.730;11.110;2022-12-31T18:14:13;15.20;99.90
33739;DHT22;20063;51.730;11.110;2022-12-31T18:16:39;15.10;99.90
33739;DHT22;20063;51.730;11.110;2022-12-31T18:19:13;15.10;99.90
33739;DHT22;20063;51.730;11.110;2022-12-31T18:21:41;15.10;99.90
33739;DHT22;20063;51.730;11.110;2022-12-31T18:24:12;15.10;99.90
33739;DHT22;20063;51.730;11.110;2022-12-31T18:26:38;15.10;99.90
33739;DHT22;20063;51.730;11.110;2022-12-31T18:29:15;15.10;99.90
33739;DHT22;20063;51.730;11.110;2022-12-31T18:31:43;15.00;99.90
33739;DHT22;20063;51.730;11.110;2022-12-31T18:34:13;15.00;99.90
33739;DHT22;20063;51.730;11.110;2022-12-31T18:36:39;15.00;99.90
33739;DHT22;20063;51.730;11.110;2022-12-31T18:39:05;15.00;99.90
33739;DHT22;20063;51.730;11.110;2022-12-31T18:41:41;15.00;99.90
33739;DHT22;20063;51.730;11.110;2022-12-31T18:44:11;15.00;99.90
33739;DHT22;20063;51.730;11.110;2022-12-31T18:46:37;15.00;99.90
33739;DHT22;20063;51.730;11.110;2022-12-31T18:49:02;15.00;99.90
33739;DHT22;20063;51.730;11.110;2022-12-31T18:51:28;15.00;99.90
33739;DHT22;20063;51.730;11.110;2022-12-31T18:53:53;15.00;99.90
33739;DHT22;20063;51.730;11.110;2022-12-31T18:56:20;15.00;99.90
33739;DHT22;20063;51.730;11.110;2022-12-31T18:58:46;15.00;99.90